sensor_id;sensor_type;location;lat;lon;timestamp;temperature;humidity
22940;DHT22;11636;52.086;5.090;2023-03-19T00:01:25;11.20;99.90
22940;DHT22;11636;52.086;5.090;2023-03-19T00:03:52;11.20;99.90
22940;DHT22;11636;52.086;5.090;2023-03-19T00:06:25;11.20;99.90
22940;DHT22;11636;52.086;5.090;2023-03-19T00:08:52;11.20;99.90
22940;DHT22;11636;52.086;5.090;2023-03-19T00:11:19;11.10;99.90
22940;DHT22;11636;52.086;5.090;2023-03-19T00:13:52;11.20;99.90
22940;DHT22;11636;52.086;5.090;2023-03-19T00:16:25;11.20;99.90
22940;DHT22;11636;52.086;5.090;2023-03-19T00:18:52;11.10;99.90
22940;DHT22;11636;52.086;5.090;2023-03-19T00:21:22;11.10;99.90
22940;DHT22;11636;52.086;5.090;2023-03-19T00:23:57;11.20;99.90
22940;DHT22;11636;52.086;5.090;2023-03-19T00:26:36;11.20;99.90
22940;DHT22;11636;52.086;5.090;2023-03-19T00:29:03;11.20;99.90
22940;DHT22;11636;52.086;5.090;2023-03-19T00:31:30;11.20;99.90
22940;DHT22;11636;52.086;5.090;2023-03-19T00:34:03;11.10;99.90
22940;DHT22;11636;52.086;5.090;2023-03-19T00:36:30;11.10;99.90
22940;DHT22;11636;52.086;5.090;2023-03-19T00:38:57;11.00;99.90
22940;DHT22;11636;52.086;5.090;2023-03-19T00:41:31;11.00;99.90
22940;DHT22;11636;52.086;5.090;2023-03-19T00:44:04;10.90;99.90
22940;DHT22;11636;52.086;5.090;2023-03-19T00:46:32;10.80;99.90
22940;DHT22;11636;52.086;5.090;2023-03-19T00:48:59;10.70;99.90
22940;DHT22;11636;52.086;5.090;2023-03-19T00:51:32;10.70;99.90
22940;DHT22;11636;52.086;5.090;2023-03-19T00:53:59;10.60;99.90
22940;DHT22;11636;52.086;5.090;2023-03-19T00:56:26;10.60;99.90
22940;DHT22;11636;52.086;5.090;2023-03-19T00:58:59;10.60;99.90
22940;DHT22;11636;52.086;5.090;2023-03-19T01:01:26;10.50;99.90
22940;DHT22;11636;52.086;5.090;2023-03-19T01:03:59;10.50;99.90
22940;DHT22;11636;52.086;5.090;2023-03-19T01:06:27;10.50;99.90
22940;DHT22;11636;52.086;5.090;2023-03-19T01:08:54;10.60;99.90
22940;DHT22;11636;52.086;5.090;2023-03-19T01:11:27;10.60;99.90
22940;DHT22;11636;52.086;5.090;2023-03-19T01:14:00;10.70;99.90
22940;DHT22;11636;52.086;5.090;2023-03-19T01:16:28;10.70;99.90
22940;DHT22;11636;52.086;5.090;2023-03-19T01:19:02;10.80;99.90
22940;DHT22;11636;52.086;5.090;2023-03-19T01:21:35;10.80;99.90
22940;DHT22;11636;52.086;5.090;2023-03-19T01:24:09;10.80;99.90
22940;DHT22;11636;52.086;5.090;2023-03-19T01:26:36;10.80;99.90
22940;DHT22;11636;52.086;5.090;2023-03-19T01:29:10;10.80;99.90
22940;DHT22;11636;52.086;5.090;2023-03-19T01:31:43;10.80;99.90
22940;DHT22;11636;52.086;5.090;2023-03-19T01:34:17;10.90;99.90
22940;DHT22;11636;52.086;5.090;2023-03-19T01:37:03;10.90;99.90
22940;DHT22;11636;52.086;5.090;2023-03-19T01:39:40;10.90;99.90
22940;DHT22;11636;52.086;5.090;2023-03-19T01:42:13;10.90;99.90
22940;DHT22;11636;52.086;5.090;2023-03-19T01:44:46;10.90;99.90
22940;DHT22;11636;52.086;5.090;2023-03-19T01:47:50;10.80;99.90
22940;DHT22;11636;52.086;5.090;2023-03-19T01:50:34;10.70;99.90
22940;DHT22;11636;52.086;5.090;2023-03-19T01:53:12;10.60;99.90
22940;DHT22;11636;52.086;5.090;2023-03-19T01:55:41;10.50;99.90
22940;DHT22;11636;52.086;5.090;2023-03-19T01:58:09;10.50;99.90
22940;DHT22;11636;52.086;5.090;2023-03-19T02:00:42;10.40;99.90
22940;DHT22;11636;52.086;5.090;2023-03-19T02:03:10;10.30;99.90
22940;DHT22;11636;52.086;5.090;2023-03-19T02:05:46;10.30;99.90
22940;DHT22;11636;52.086;5.090;2023-03-19T02:08:16;10.20;99.90
22940;DHT22;11636;52.086;5.090;2023-03-19T02:10:51;10.20;99.90
22940;DHT22;11636;52.086;5.090;2023-03-19T02:13:28;10.10;99.90
22940;DHT22;11636;52.086;5.090;2023-03-19T02:16:02;10.10;99.90
22940;DHT22;11636;52.086;5.090;2023-03-19T02:18:30;10.10;99.90
22940;DHT22;11636;52.086;5.090;2023-03-19T02:21:07;10.10;99.90
22940;DHT22;11636;52.086;5.090;2023-03-19T02:23:53;10.20;99.90
22940;DHT22;11636;52.086;5.090;2023-03-19T02:26:29;10.30;99.90
22940;DHT22;11636;52.086;5.090;2023-03-19T02:28:56;10.30;99.90
22940;DHT22;11636;52.086;5.090;2023-03-19T02:31:30;10.20;99.90
22940;DHT22;11636;52.086;5.090;2023-03-19T02:33:58;10.20;99.90
22940;DHT22;11636;52.086;5.090;2023-03-19T02:36:36;10.10;99.90
22940;DHT22;11636;52.086;5.090;2023-03-19T02:39:08;10.10;99.90
22940;DHT22;11636;52.086;5.090;2023-03-19T02:41:44;10.10;99.90
22940;DHT22;11636;52.086;5.090;2023-03-19T02:44:12;10.10;99.90
22940;DHT22;11636;52.086;5.090;2023-03-19T02:46:49;10.20;99.90
22940;DHT22;11636;52.086;5.090;2023-03-19T02:49:16;10.20;99.90
22940;DHT22;11636;52.086;5.090;2023-03-19T02:52:04;10.20;99.90
22940;DHT22;11636;52.086;5.090;2023-03-19T02:54:45;10.20;99.90
22940;DHT22;11636;52.086;5.090;2023-03-19T02:57:22;10.10;99.90
22940;DHT22;11636;52.086;5.090;2023-03-19T02:59:52;10.10;99.90
22940;DHT22;11636;52.086;5.090;2023-03-19T03:02:25;10.00;99.90
22940;DHT22;11636;52.086;5.090;2023-03-19T03:04:52;10.00;99.90
22940;DHT22;11636;52.086;5.090;2023-03-19T03:07:26;9.90;99.90
22940;DHT22;11636;52.086;5.090;2023-03-19T03:09:53;9.90;99.90
22940;DHT22;11636;52.086;5.090;2023-03-19T03:12:26;9.90;99.90
22940;DHT22;11636;52.086;5.090;2023-03-19T03:15:00;9.90;99.90
22940;DHT22;11636;52.086;5.090;2023-03-19T03:17:27;9.90;99.90
22940;DHT22;11636;52.086;5.090;2023-03-19T03:20:01;9.90;99.90
22940;DHT22;11636;52.086;5.090;2023-03-19T03:22:27;9.80;99.90
22940;DHT22;11636;52.086;5.090;2023-03-19T03:25:01;9.80;99.90
22940;DHT22;11636;52.086;5.090;2023-03-19T03:27:27;9.80;99.90
22940;DHT22;11636;52.086;5.090;2023-03-19T03:30:01;9.80;99.90
22940;DHT22;11636;52.086;5.090;2023-03-19T03:32:36;9.80;99.90
22940;DHT22;11636;52.086;5.090;2023-03-19T03:35:16;9.80;99.90
22940;DHT22;11636;52.086;5.090;2023-03-19T03:37:50;9.80;99.90
22940;DHT22;11636;52.086;5.090;2023-03-19T03:40:23;9.70;99.90
22940;DHT22;11636;52.086;5.090;2023-03-19T03:42:56;9.70;99.90
22940;DHT22;11636;52.086;5.090;2023-03-19T03:45:30;9.60;99.90
22940;DHT22;11636;52.086;5.090;2023-03-19T03:47:57;9.50;99.90
22940;DHT22;11636;52.086;5.090;2023-03-19T03:50:30;9.50;99.90
22940;DHT22;11636;52.086;5.090;2023-03-19T03:52:57;9.40;99.90
22940;DHT22;11636;52.086;5.090;2023-03-19T03:55:30;9.40;99.90
22940;DHT22;11636;52.086;5.090;2023-03-19T03:58:03;9.40;99.90
22940;DHT22;11636;52.086;5.090;2023-03-19T04:00:37;9.40;99.90
22940;DHT22;11636;52.086;5.090;2023-03-19T04:03:04;9.30;99.90
22940;DHT22;11636;52.086;5.090;2023-03-19T04:05:31;9.30;99.90
22940;DHT22;11636;52.086;5.090;2023-03-19T04:08:04;9.30;99.90
22940;DHT22;11636;52.086;5.090;2023-03-19T04:10:39;9.30;99.90
22940;DHT22;11636;52.086;5.090;2023-03-19T04:13:11;9.20;99.90
22940;DHT22;11636;52.086;5.090;2023-03-19T04:15:45;9.20;99.90
22940;DHT22;11636;52.086;5.090;2023-03-19T04:18:19;9.20;99.90
22940;DHT22;11636;52.086;5.090;2023-03-19T04:20:53;9.10;99.90
22940;DHT22;11636;52.086;5.090;2023-03-19T04:23:20;9.10;99.90
22940;DHT22;11636;52.086;5.090;2023-03-19T04:26:02;9.10;99.90
22940;DHT22;11636;52.086;5.090;2023-03-19T04:28:30;9.00;99.90
22940;DHT22;11636;52.086;5.090;2023-03-19T04:31:06;9.00;99.90
22940;DHT22;11636;52.086;5.090;2023-03-19T04:33:33;8.90;99.90
22940;DHT22;11636;52.086;5.090;2023-03-19T04:36:07;8.90;99.90
22940;DHT22;11636;52.086;5.090;2023-03-19T04:38:34;8.90;99.90
22940;DHT22;11636;52.086;5.090;2023-03-19T04:41:08;8.90;99.90
22940;DHT22;11636;52.086;5.090;2023-03-19T04:43:35;8.80;99.90
22940;DHT22;11636;52.086;5.090;2023-03-19T04:46:09;8.80;99.90
22940;DHT22;11636;52.086;5.090;2023-03-19T04:48:36;8.80;99.90
22940;DHT22;11636;52.086;5.090;2023-03-19T04:51:10;8.80;99.90
22940;DHT22;11636;52.086;5.090;2023-03-19T04:53:37;8.80;99.90
22940;DHT22;11636;52.086;5.090;2023-03-19T04:56:06;8.80;99.90
22940;DHT22;11636;52.086;5.090;2023-03-19T04:58:40;8.80;99.90
22940;DHT22;11636;52.086;5.090;2023-03-19T05:01:14;8.70;99.90
22940;DHT22;11636;52.086;5.090;2023-03-19T05:03:47;8.70;99.90
22940;DHT22;11636;52.086;5.090;2023-03-19T05:06:14;8.70;99.90
22940;DHT22;11636;52.086;5.090;2023-03-19T05:08:47;8.60;99.90
22940;DHT22;11636;52.086;5.090;2023-03-19T05:11:14;8.60;99.90
22940;DHT22;11636;52.086;5.090;2023-03-19T05:13:47;8.70;99.90
22940;DHT22;11636;52.086;5.090;2023-03-19T05:16:14;8.70;99.90
22940;DHT22;11636;52.086;5.090;2023-03-19T05:18:48;8.70;99.90
22940;DHT22;11636;52.086;5.090;2023-03-19T05:21:28;8.80;99.90
22940;DHT22;11636;52.086;5.090;2023-03-19T05:24:01;8.80;99.90
22940;DHT22;11636;52.086;5.090;2023-03-19T05:26:35;8.80;99.90
22940;DHT22;11636;52.086;5.090;2023-03-19T05:29:09;8.80;99.90
22940;DHT22;11636;52.086;5.090;2023-03-19T05:31:37;8.80;99.90
22940;DHT22;11636;52.086;5.090;2023-03-19T05:34:04;8.80;99.90
22940;DHT22;11636;52.086;5.090;2023-03-19T05:36:37;8.80;99.90
22940;DHT22;11636;52.086;5.090;2023-03-19T05:39:10;8.80;99.90
22940;DHT22;11636;52.086;5.090;2023-03-19T05:41:37;8.80;99.90
22940;DHT22;11636;52.086;5.090;2023-03-19T05:44:10;8.80;99.90
22940;DHT22;11636;52.086;5.090;2023-03-19T05:46:44;8.80;99.90
22940;DHT22;11636;52.086;5.090;2023-03-19T05:49:12;8.80;99.90
22940;DHT22;11636;52.086;5.090;2023-03-19T05:51:47;8.80;99.90
22940;DHT22;11636;52.086;5.090;2023-03-19T05:54:20;8.80;99.90
22940;DHT22;11636;52.086;5.090;2023-03-19T05:56:57;8.80;99.90
22940;DHT22;11636;52.086;5.090;2023-03-19T05:59:24;8.80;99.90
22940;DHT22;11636;52.086;5.090;2023-03-19T06:01:51;8.80;99.90
22940;DHT22;11636;52.086;5.090;2023-03-19T06:04:24;8.80;99.90
22940;DHT22;11636;52.086;5.090;2023-03-19T06:06:57;8.80;99.90
22940;DHT22;11636;52.086;5.090;2023-03-19T06:09:31;8.80;99.90
22940;DHT22;11636;52.086;5.090;2023-03-19T06:11:58;8.80;99.90
22940;DHT22;11636;52.086;5.090;2023-03-19T06:14:31;8.80;99.90
22940;DHT22;11636;52.086;5.090;2023-03-19T06:17:04;8.80;99.90
22940;DHT22;11636;52.086;5.090;2023-03-19T06:19:31;8.80;99.90
22940;DHT22;11636;52.086;5.090;2023-03-19T06:22:04;8.80;99.90
22940;DHT22;11636;52.086;5.090;2023-03-19T06:24:38;8.80;99.90
22940;DHT22;11636;52.086;5.090;2023-03-19T06:27:11;8.70;99.90
22940;DHT22;11636;52.086;5.090;2023-03-19T06:29:38;8.70;99.90
22940;DHT22;11636;52.086;5.090;2023-03-19T06:32:18;8.80;99.90
22940;DHT22;11636;52.086;5.090;2023-03-19T06:34:45;8.70;99.90
22940;DHT22;11636;52.086;5.090;2023-03-19T06:37:19;8.70;99.90
22940;DHT22;11636;52.086;5.090;2023-03-19T06:39:46;8.70;99.90
22940;DHT22;11636;52.086;5.090;2023-03-19T06:42:21;8.60;99.90
22940;DHT22;11636;52.086;5.090;2023-03-19T06:44:55;8.60;99.90
22940;DHT22;11636;52.086;5.090;2023-03-19T06:47:32;8.70;99.90
22940;DHT22;11636;52.086;5.090;2023-03-19T06:50:05;8.70;99.90
22940;DHT22;11636;52.086;5.090;2023-03-19T06:52:39;8.80;99.90
22940;DHT22;11636;52.086;5.090;2023-03-19T06:55:06;8.80;99.90
22940;DHT22;11636;52.086;5.090;2023-03-19T06:57:34;8.80;99.90
22940;DHT22;11636;52.086;5.090;2023-03-19T07:00:09;8.70;99.90
22940;DHT22;11636;52.086;5.090;2023-03-19T07:02:37;8.60;99.90
22940;DHT22;11636;52.086;5.090;2023-03-19T07:05:10;8.70;99.90
22940;DHT22;11636;52.086;5.090;2023-03-19T07:07:37;8.70;99.90
22940;DHT22;11636;52.086;5.090;2023-03-19T07:10:11;8.70;99.90
22940;DHT22;11636;52.086;5.090;2023-03-19T07:12:45;8.70;99.90
22940;DHT22;11636;52.086;5.090;2023-03-19T07:15:18;8.70;99.90
22940;DHT22;11636;52.086;5.090;2023-03-19T07:17:48;8.70;99.90
22940;DHT22;11636;52.086;5.090;2023-03-19T07:20:22;8.70;99.90
22940;DHT22;11636;52.086;5.090;2023-03-19T07:22:52;8.70;99.90
22940;DHT22;11636;52.086;5.090;2023-03-19T07:25:26;8.70;99.90
22940;DHT22;11636;52.086;5.090;2023-03-19T07:27:53;8.70;99.90
22940;DHT22;11636;52.086;5.090;2023-03-19T07:30:26;8.60;99.90
22940;DHT22;11636;52.086;5.090;2023-03-19T07:32:54;8.70;99.90
22940;DHT22;11636;52.086;5.090;2023-03-19T07:35:27;8.70;99.90
22940;DHT22;11636;52.086;5.090;2023-03-19T07:38:01;8.70;99.90
22940;DHT22;11636;52.086;5.090;2023-03-19T07:40:35;8.70;99.90
22940;DHT22;11636;52.086;5.090;2023-03-19T07:43:03;8.70;99.90
22940;DHT22;11636;52.086;5.090;2023-03-19T07:45:36;8.70;99.90
22940;DHT22;11636;52.086;5.090;2023-03-19T07:48:03;8.70;99.90
22940;DHT22;11636;52.086;5.090;2023-03-19T07:50:39;8.70;99.90
22940;DHT22;11636;52.086;5.090;2023-03-19T07:53:07;8.80;99.90
22940;DHT22;11636;52.086;5.090;2023-03-19T07:55:33;8.80;99.90
22940;DHT22;11636;52.086;5.090;2023-03-19T07:58:07;8.90;99.90
22940;DHT22;11636;52.086;5.090;2023-03-19T08:00:34;8.90;99.90
22940;DHT22;11636;52.086;5.090;2023-03-19T08:03:08;9.00;99.90
22940;DHT22;11636;52.086;5.090;2023-03-19T08:05:41;9.00;99.90
22940;DHT22;11636;52.086;5.090;2023-03-19T08:08:15;9.10;99.90
22940;DHT22;11636;52.086;5.090;2023-03-19T08:10:43;9.20;99.90
22940;DHT22;11636;52.086;5.090;2023-03-19T08:13:16;9.30;99.90
22940;DHT22;11636;52.086;5.090;2023-03-19T08:15:43;9.40;99.90
22940;DHT22;11636;52.086;5.090;2023-03-19T08:18:23;9.40;99.90
22940;DHT22;11636;52.086;5.090;2023-03-19T08:20:57;9.40;99.90
22940;DHT22;11636;52.086;5.090;2023-03-19T08:23:24;9.40;99.90
22940;DHT22;11636;52.086;5.090;2023-03-19T08:25:52;9.30;99.90
22940;DHT22;11636;52.086;5.090;2023-03-19T08:28:27;9.30;99.90
22940;DHT22;11636;52.086;5.090;2023-03-19T08:31:11;9.40;99.90
22940;DHT22;11636;52.086;5.090;2023-03-19T08:33:39;9.50;99.90
22940;DHT22;11636;52.086;5.090;2023-03-19T08:36:13;9.40;99.90
22940;DHT22;11636;52.086;5.090;2023-03-19T08:38:41;9.30;99.90
22940;DHT22;11636;52.086;5.090;2023-03-19T08:41:09;9.30;99.90
22940;DHT22;11636;52.086;5.090;2023-03-19T08:43:42;9.20;99.90
22940;DHT22;11636;52.086;5.090;2023-03-19T08:46:09;9.20;99.90
22940;DHT22;11636;52.086;5.090;2023-03-19T08:48:43;9.20;99.90
22940;DHT22;11636;52.086;5.090;2023-03-19T08:51:11;9.20;99.90
22940;DHT22;11636;52.086;5.090;2023-03-19T08:53:44;9.30;99.90
22940;DHT22;11636;52.086;5.090;2023-03-19T08:56:11;9.30;99.90
22940;DHT22;11636;52.086;5.090;2023-03-19T08:58:44;9.40;99.90
22940;DHT22;11636;52.086;5.090;2023-03-19T09:01:12;9.50;99.90
22940;DHT22;11636;52.086;5.090;2023-03-19T09:03:46;9.50;99.90
22940;DHT22;11636;52.086;5.090;2023-03-19T09:06:13;9.50;99.90
22940;DHT22;11636;52.086;5.090;2023-03-19T09:08:47;9.60;99.90
22940;DHT22;11636;52.086;5.090;2023-03-19T09:11:14;9.70;99.90
22940;DHT22;11636;52.086;5.090;2023-03-19T09:13:49;9.70;99.90
22940;DHT22;11636;52.086;5.090;2023-03-19T09:16:16;9.70;99.90
22940;DHT22;11636;52.086;5.090;2023-03-19T09:18:50;9.80;99.90
22940;DHT22;11636;52.086;5.090;2023-03-19T09:21:17;9.80;99.90
22940;DHT22;11636;52.086;5.090;2023-03-19T09:23:51;9.90;99.90
22940;DHT22;11636;52.086;5.090;2023-03-19T09:26:18;9.90;99.90
22940;DHT22;11636;52.086;5.090;2023-03-19T09:28:53;9.80;99.90
22940;DHT22;11636;52.086;5.090;2023-03-19T09:31:20;9.70;99.90
22940;DHT22;11636;52.086;5.090;2023-03-19T09:33:55;9.70;99.90
22940;DHT22;11636;52.086;5.090;2023-03-19T09:36:22;9.80;99.90
22940;DHT22;11636;52.086;5.090;2023-03-19T09:38:55;9.70;99.90
22940;DHT22;11636;52.086;5.090;2023-03-19T09:41:54;9.70;99.90
22940;DHT22;11636;52.086;5.090;2023-03-19T09:44:43;9.80;99.90
22940;DHT22;11636;52.086;5.090;2023-03-19T09:47:26;9.90;99.90
22940;DHT22;11636;52.086;5.090;2023-03-19T09:50:09;10.00;99.90
22940;DHT22;11636;52.086;5.090;2023-03-19T09:55:42;10.10;99.90
22940;DHT22;11636;52.086;5.090;2023-03-19T09:58:17;10.10;99.90
22940;DHT22;11636;52.086;5.090;2023-03-19T10:00:52;10.10;99.90
22940;DHT22;11636;52.086;5.090;2023-03-19T10:06:08;10.10;99.90
22940;DHT22;11636;52.086;5.090;2023-03-19T10:17:02;10.10;99.90
22940;DHT22;11636;52.086;5.090;2023-03-19T10:19:44;10.20;99.90
22940;DHT22;11636;52.086;5.090;2023-03-19T10:22:23;10.30;99.90
22940;DHT22;11636;52.086;5.090;2023-03-19T10:24:53;10.50;99.90
22940;DHT22;11636;52.086;5.090;2023-03-19T10:27:31;10.60;99.90
22940;DHT22;11636;52.086;5.090;2023-03-19T10:29:58;10.60;99.90
22940;DHT22;11636;52.086;5.090;2023-03-19T10:32:45;10.50;99.90
22940;DHT22;11636;52.086;5.090;2023-03-19T10:35:31;10.50;99.90
22940;DHT22;11636;52.086;5.090;2023-03-19T10:38:23;10.50;99.90
22940;DHT22;11636;52.086;5.090;2023-03-19T10:44:11;10.40;99.90
22940;DHT22;11636;52.086;5.090;2023-03-19T10:46:40;10.30;99.90
22940;DHT22;11636;52.086;5.090;2023-03-19T10:49:14;10.30;99.90
22940;DHT22;11636;52.086;5.090;2023-03-19T10:51:48;10.40;99.90
22940;DHT22;11636;52.086;5.090;2023-03-19T10:54:27;10.40;99.90
22940;DHT22;11636;52.086;5.090;2023-03-19T10:56:58;10.40;99.90
22940;DHT22;11636;52.086;5.090;2023-03-19T10:59:36;10.40;99.90
22940;DHT22;11636;52.086;5.090;2023-03-19T11:02:17;10.40;99.90
22940;DHT22;11636;52.086;5.090;2023-03-19T11:07:55;10.40;99.90
22940;DHT22;11636;52.086;5.090;2023-03-19T11:10:34;10.40;99.90
22940;DHT22;11636;52.086;5.090;2023-03-19T11:13:23;10.30;99.90
22940;DHT22;11636;52.086;5.090;2023-03-19T11:15:59;10.30;99.90
22940;DHT22;11636;52.086;5.090;2023-03-19T11:18:38;10.30;99.90
22940;DHT22;11636;52.086;5.090;2023-03-19T11:21:40;10.50;99.90
22940;DHT22;11636;52.086;5.090;2023-03-19T11:24:11;10.50;99.90
22940;DHT22;11636;52.086;5.090;2023-03-19T11:26:38;10.70;99.90
22940;DHT22;11636;52.086;5.090;2023-03-19T11:29:11;10.70;99.90
22940;DHT22;11636;52.086;5.090;2023-03-19T11:31:57;10.80;99.90
22940;DHT22;11636;52.086;5.090;2023-03-19T11:51:42;10.70;99.90
22940;DHT22;11636;52.086;5.090;2023-03-19T11:54:35;10.70;99.90
22940;DHT22;11636;52.086;5.090;2023-03-19T12:00:50;10.80;99.90
22940;DHT22;11636;52.086;5.090;2023-03-19T12:09:05;11.00;99.90
22940;DHT22;11636;52.086;5.090;2023-03-19T12:12:13;10.90;99.90
22940;DHT22;11636;52.086;5.090;2023-03-19T12:21:07;11.10;99.90
22940;DHT22;11636;52.086;5.090;2023-03-19T12:32:15;11.40;99.90
22940;DHT22;11636;52.086;5.090;2023-03-19T12:35:00;11.40;99.90
22940;DHT22;11636;52.086;5.090;2023-03-19T12:37:44;11.60;99.90
22940;DHT22;11636;52.086;5.090;2023-03-19T12:40:28;11.60;99.90
22940;DHT22;11636;52.086;5.090;2023-03-19T12:43:12;11.70;99.90
22940;DHT22;11636;52.086;5.090;2023-03-19T12:45:44;11.80;99.90
22940;DHT22;11636;52.086;5.090;2023-03-19T12:48:23;11.80;99.90
22940;DHT22;11636;52.086;5.090;2023-03-19T12:50:55;11.90;99.90
22940;DHT22;11636;52.086;5.090;2023-03-19T12:56:18;12.20;99.90
22940;DHT22;11636;52.086;5.090;2023-03-19T12:59:20;12.20;99.90
22940;DHT22;11636;52.086;5.090;2023-03-19T13:02:51;12.40;99.90
22940;DHT22;11636;52.086;5.090;2023-03-19T13:05:15;12.50;99.90
22940;DHT22;11636;52.086;5.090;2023-03-19T13:08:02;12.80;99.90
22940;DHT22;11636;52.086;5.090;2023-03-19T13:10:31;13.10;99.90
22940;DHT22;11636;52.086;5.090;2023-03-19T13:22:11;13.50;99.90
22940;DHT22;11636;52.086;5.090;2023-03-19T13:24:47;13.50;99.90
22940;DHT22;11636;52.086;5.090;2023-03-19T13:27:28;13.60;99.90
22940;DHT22;11636;52.086;5.090;2023-03-19T13:32:51;13.50;99.90
22940;DHT22;11636;52.086;5.090;2023-03-19T13:35:44;13.40;99.90
22940;DHT22;11636;52.086;5.090;2023-03-19T13:41:00;13.50;99.90
22940;DHT22;11636;52.086;5.090;2023-03-19T13:46:25;13.80;99.90
22940;DHT22;11636;52.086;5.090;2023-03-19T13:49:25;13.90;99.90
22940;DHT22;11636;52.086;5.090;2023-03-19T13:51:57;13.60;99.90
22940;DHT22;11636;52.086;5.090;2023-03-19T13:54:39;13.50;99.90
22940;DHT22;11636;52.086;5.090;2023-03-19T13:59:49;13.40;99.90
22940;DHT22;11636;52.086;5.090;2023-03-19T14:04:59;13.60;99.90
22940;DHT22;11636;52.086;5.090;2023-03-19T14:07:35;13.50;99.90
22940;DHT22;11636;52.086;5.090;2023-03-19T14:13:02;13.30;99.90
22940;DHT22;11636;52.086;5.090;2023-03-19T14:15:39;13.20;99.90
22940;DHT22;11636;52.086;5.090;2023-03-19T14:18:15;13.10;99.90
22940;DHT22;11636;52.086;5.090;2023-03-19T14:21:00;13.00;99.90
22940;DHT22;11636;52.086;5.090;2023-03-19T14:23:40;13.00;99.90
22940;DHT22;11636;52.086;5.090;2023-03-19T14:26:22;13.00;99.90
22940;DHT22;11636;52.086;5.090;2023-03-19T14:29:00;12.90;99.90
22940;DHT22;11636;52.086;5.090;2023-03-19T14:31:46;12.90;99.90
22940;DHT22;11636;52.086;5.090;2023-03-19T14:34:37;12.80;99.90
22940;DHT22;11636;52.086;5.090;2023-03-19T14:37:22;12.80;99.90
22940;DHT22;11636;52.086;5.090;2023-03-19T14:40:15;12.80;99.90
22940;DHT22;11636;52.086;5.090;2023-03-19T14:42:54;12.70;99.90
22940;DHT22;11636;52.086;5.090;2023-03-19T14:45:54;12.60;99.90
22940;DHT22;11636;52.086;5.090;2023-03-19T14:56:31;12.50;99.90
22940;DHT22;11636;52.086;5.090;2023-03-19T14:59:08;12.50;99.90
22940;DHT22;11636;52.086;5.090;2023-03-19T15:01:43;12.60;99.90
22940;DHT22;11636;52.086;5.090;2023-03-19T15:04:24;12.60;99.90
22940;DHT22;11636;52.086;5.090;2023-03-19T15:06:54;12.60;99.90
22940;DHT22;11636;52.086;5.090;2023-03-19T15:09:30;12.60;99.90
22940;DHT22;11636;52.086;5.090;2023-03-19T15:12:27;12.60;99.90
22940;DHT22;11636;52.086;5.090;2023-03-19T15:15:22;12.50;99.90
22940;DHT22;11636;52.086;5.090;2023-03-19T15:18:00;12.50;99.90
22940;DHT22;11636;52.086;5.090;2023-03-19T15:20:34;12.50;99.90
22940;DHT22;11636;52.086;5.090;2023-03-19T15:23:11;12.50;99.90
22940;DHT22;11636;52.086;5.090;2023-03-19T15:25:57;12.40;99.90
22940;DHT22;11636;52.086;5.090;2023-03-19T15:28:47;12.30;99.90
22940;DHT22;11636;52.086;5.090;2023-03-19T15:31:15;12.30;99.90
22940;DHT22;11636;52.086;5.090;2023-03-19T15:34:26;12.30;99.90
22940;DHT22;11636;52.086;5.090;2023-03-19T15:37:04;12.30;99.90
22940;DHT22;11636;52.086;5.090;2023-03-19T15:39:44;12.30;99.90
22940;DHT22;11636;52.086;5.090;2023-03-19T15:42:15;12.20;99.90
22940;DHT22;11636;52.086;5.090;2023-03-19T15:44:53;12.10;99.90
22940;DHT22;11636;52.086;5.090;2023-03-19T15:47:33;12.00;99.90
22940;DHT22;11636;52.086;5.090;2023-03-19T15:50:14;11.80;99.90
22940;DHT22;11636;52.086;5.090;2023-03-19T15:52:55;11.70;99.90
22940;DHT22;11636;52.086;5.090;2023-03-19T15:55:23;11.40;99.90
22940;DHT22;11636;52.086;5.090;2023-03-19T15:58:04;11.30;99.90
22940;DHT22;11636;52.086;5.090;2023-03-19T16:00:39;11.20;99.90
22940;DHT22;11636;52.086;5.090;2023-03-19T16:03:17;11.10;99.90
22940;DHT22;11636;52.086;5.090;2023-03-19T16:06:24;11.00;99.90
22940;DHT22;11636;52.086;5.090;2023-03-19T16:08:54;10.90;99.90
22940;DHT22;11636;52.086;5.090;2023-03-19T16:11:51;10.90;99.90
22940;DHT22;11636;52.086;5.090;2023-03-19T16:14:26;10.90;99.90
22940;DHT22;11636;52.086;5.090;2023-03-19T16:17:13;10.80;99.90
22940;DHT22;11636;52.086;5.090;2023-03-19T16:22:28;10.80;99.90
22940;DHT22;11636;52.086;5.090;2023-03-19T16:24:56;10.70;99.90
22940;DHT22;11636;52.086;5.090;2023-03-19T16:27:38;10.70;99.90
22940;DHT22;11636;52.086;5.090;2023-03-19T16:30:25;10.60;99.90
22940;DHT22;11636;52.086;5.090;2023-03-19T16:33:01;10.60;99.90
22940;DHT22;11636;52.086;5.090;2023-03-19T16:35:31;10.60;99.90
22940;DHT22;11636;52.086;5.090;2023-03-19T16:38:11;10.60;99.90
22940;DHT22;11636;52.086;5.090;2023-03-19T16:41:10;10.50;99.90
22940;DHT22;11636;52.086;5.090;2023-03-19T16:43:34;10.60;99.90
22940;DHT22;11636;52.086;5.090;2023-03-19T16:46:11;10.60;99.90
22940;DHT22;11636;52.086;5.090;2023-03-19T16:48:38;10.60;99.90
22940;DHT22;11636;52.086;5.090;2023-03-19T16:51:15;10.60;99.90
22940;DHT22;11636;52.086;5.090;2023-03-19T16:53:49;10.50;99.90
22940;DHT22;11636;52.086;5.090;2023-03-19T16:56:16;10.50;99.90
22940;DHT22;11636;52.086;5.090;2023-03-19T16:58:51;10.50;99.90
22940;DHT22;11636;52.086;5.090;2023-03-19T17:01:25;10.50;99.90
22940;DHT22;11636;52.086;5.090;2023-03-19T17:03:59;10.50;99.90
22940;DHT22;11636;52.086;5.090;2023-03-19T17:06:33;10.50;99.90
22940;DHT22;11636;52.086;5.090;2023-03-19T17:09:01;10.50;99.90
22940;DHT22;11636;52.086;5.090;2023-03-19T17:11:44;10.50;99.90
22940;DHT22;11636;52.086;5.090;2023-03-19T17:14:18;10.50;99.90
22940;DHT22;11636;52.086;5.090;2023-03-19T17:16:52;10.40;99.90
22940;DHT22;11636;52.086;5.090;2023-03-19T17:19:34;10.40;99.90
22940;DHT22;11636;52.086;5.090;2023-03-19T17:22:01;10.40;99.90
22940;DHT22;11636;52.086;5.090;2023-03-19T17:24:35;10.40;99.90
22940;DHT22;11636;52.086;5.090;2023-03-19T17:27:09;10.40;99.90
22940;DHT22;11636;52.086;5.090;2023-03-19T17:29:37;10.40;99.90
22940;DHT22;11636;52.086;5.090;2023-03-19T17:32:16;10.40;99.90
22940;DHT22;11636;52.086;5.090;2023-03-19T17:34:44;10.30;99.90
22940;DHT22;11636;52.086;5.090;2023-03-19T17:37:18;10.30;99.90
22940;DHT22;11636;52.086;5.090;2023-03-19T17:39:45;10.30;99.90
22940;DHT22;11636;52.086;5.090;2023-03-19T17:42:24;10.30;99.90
22940;DHT22;11636;52.086;5.090;2023-03-19T17:44:51;10.30;99.90
22940;DHT22;11636;52.086;5.090;2023-03-19T17:47:22;10.30;99.90
22940;DHT22;11636;52.086;5.090;2023-03-19T17:49:56;10.30;99.90
22940;DHT22;11636;52.086;5.090;2023-03-19T17:52:30;10.20;99.90
22940;DHT22;11636;52.086;5.090;2023-03-19T17:54:57;10.20;99.90
22940;DHT22;11636;52.086;5.090;2023-03-19T17:57:30;10.20;99.90
22940;DHT22;11636;52.086;5.090;2023-03-19T18:00:03;10.20;99.90
22940;DHT22;11636;52.086;5.090;2023-03-19T18:02:32;10.10;99.90
22940;DHT22;11636;52.086;5.090;2023-03-19T18:05:19;10.10;99.90